createdAt,value
2022-12-20T00:02:30.205Z,100997.28
2022-12-20T00:05:02.397Z,101087.69
2022-12-20T00:07:34.602Z,101087.69
2022-12-20T00:10:07.324Z,101058.06
2022-12-20T00:12:39.228Z,101088.53
2022-12-20T00:15:11.708Z,101079.19
2022-12-20T00:17:43.761Z,101069.94
2022-12-20T00:20:15.857Z,101075.78
2022-12-20T00:22:47.771Z,101062.28
2022-12-20T00:25:21.100Z,101058.84
2022-12-20T00:27:53.063Z,101031.81
2022-12-20T00:30:25.027Z,101053.72
2022-12-20T00:32:56.999Z,100981.88
2022-12-20T00:35:28.963Z,101057.91
2022-12-20T00:38:00.972Z,100984.34
2022-12-20T00:40:32.955Z,101023.16
2022-12-20T00:43:04.940Z,101047.69
2022-12-20T00:45:36.955Z,101050.16
2022-12-20T00:48:08.946Z,100972.41
2022-12-20T00:50:40.914Z,101027.31
2022-12-20T00:53:12.976Z,101032.38
2022-12-20T00:55:46.651Z,101024.78
2022-12-20T00:58:18.652Z,101005.28
2022-12-20T01:00:56.137Z,101033.16
2022-12-20T01:03:29.406Z,101013.69
2022-12-20T01:06:03.262Z,101040.72
2022-12-20T01:08:35.250Z,101033.06
2022-12-20T01:11:19.163Z,101027.19
2022-12-20T01:13:54.308Z,100982.31
2022-12-20T01:16:29.949Z,101010.16
2022-12-20T01:19:02.768Z,101028.72
2022-12-20T01:21:36.370Z,101023.56
2022-12-20T01:24:12.424Z,101006.72
2022-12-20T01:26:45.423Z,101027.00
2022-12-20T01:29:18.616Z,101023.56
2022-12-20T01:31:54.445Z,101020.97
2022-12-20T01:34:26.447Z,101025.16
2022-12-20T01:36:58.543Z,100944.88
2022-12-20T01:39:30.438Z,100895.84
2022-12-20T01:42:02.442Z,101003.09
2022-12-20T01:44:43.538Z,100997.94
2022-12-20T01:47:15.709Z,100972.56
2022-12-20T01:49:52.868Z,100906.66
2022-12-20T01:52:39.298Z,100980.88
2022-12-20T01:55:17.786Z,100981.66
2022-12-20T01:58:03.866Z,100928.41
2022-12-20T02:00:37.616Z,100962.97
2022-12-20T02:03:13.524Z,100845.69
2022-12-20T02:05:47.377Z,100949.38
2022-12-20T02:08:20.860Z,100956.91
2022-12-20T02:11:11.105Z,100955.19
2022-12-20T02:14:05.332Z,100950.91
2022-12-20T02:16:48.754Z,100939.91
2022-12-20T02:19:47.082Z,100956.72
2022-12-20T02:22:37.831Z,100944.75
2022-12-20T02:25:28.372Z,100949.78
2022-12-20T02:28:21.729Z,100941.28
2022-12-20T02:30:58.466Z,100914.22
2022-12-20T02:33:30.419Z,100920.09
2022-12-20T02:36:04.613Z,100919.13
2022-12-20T02:38:38.634Z,100909.00
2022-12-20T02:41:14.284Z,100929.22
2022-12-20T02:44:10.753Z,100927.50
2022-12-20T02:46:43.467Z,100919.03
2022-12-20T02:49:20.772Z,100923.22
2022-12-20T02:51:54.975Z,100918.91
2022-12-20T02:54:28.569Z,100913.78
2022-12-20T02:57:20.553Z,100906.97
2022-12-20T03:00:06.904Z,100905.19
2022-12-20T03:02:58.483Z,100920.47
2022-12-20T03:05:31.536Z,100908.59
2022-12-20T03:08:03.590Z,100904.34
2022-12-20T03:10:35.585Z,100878.09
2022-12-20T03:13:07.841Z,100857.91
2022-12-20T03:15:39.824Z,100893.22
2022-12-20T03:18:12.223Z,100891.50
2022-12-20T03:20:47.249Z,100897.41
2022-12-20T03:23:22.735Z,100753.25
2022-12-20T03:25:54.964Z,100831.69
2022-12-20T03:28:27.400Z,100850.91
2022-12-20T03:30:59.734Z,100898.06
2022-12-20T03:33:31.873Z,100889.69
2022-12-20T03:36:04.039Z,100857.50
2022-12-20T03:38:36.010Z,100854.81
2022-12-20T03:41:08.248Z,100861.66
2022-12-20T03:43:40.221Z,100851.47
2022-12-20T03:46:12.313Z,100798.56
2022-12-20T03:48:44.828Z,100884.38
2022-12-20T03:51:16.842Z,100865.00
2022-12-20T03:53:49.044Z,100874.97
2022-12-20T03:56:21.070Z,100822.97
2022-12-20T03:58:53.032Z,100794.03
2022-12-20T04:01:27.850Z,100874.13
2022-12-20T04:04:00.037Z,100843.72
2022-12-20T04:06:32.362Z,100784.63
2022-12-20T04:09:04.567Z,100781.31
2022-12-20T04:11:36.552Z,100859.53
2022-12-20T04:14:08.749Z,100826.66
2022-12-20T04:16:40.961Z,100782.84
2022-12-20T04:19:13.168Z,100834.16
2022-12-20T04:21:45.434Z,100724.66
2022-12-20T04:24:17.682Z,100842.56
2022-12-20T04:26:49.945Z,100761.75
2022-12-20T04:29:22.035Z,100834.09
2022-12-20T04:31:54.200Z,100772.63
2022-12-20T04:34:26.311Z,100844.13
2022-12-20T04:36:58.317Z,100765.69
2022-12-20T04:39:30.328Z,100849.16
2022-12-20T04:42:02.321Z,100875.16
2022-12-20T04:44:34.288Z,100747.91
2022-12-20T04:47:06.365Z,100773.03
2022-12-20T04:49:38.485Z,100799.41
2022-12-20T04:52:28.922Z,100865.91
2022-12-20T04:55:00.903Z,100853.13
2022-12-20T04:57:32.891Z,100864.00
2022-12-20T05:00:05.222Z,100850.53
2022-12-20T05:02:37.346Z,100819.31
2022-12-20T05:05:09.797Z,100748.72
2022-12-20T05:07:41.771Z,100845.59
2022-12-20T05:10:13.806Z,100870.91
2022-12-20T05:12:46.000Z,100854.00
2022-12-20T05:15:18.201Z,100841.22
2022-12-20T05:17:50.234Z,100859.69
2022-12-20T05:20:22.211Z,100839.44
2022-12-20T05:23:12.597Z,100852.09
2022-12-20T05:26:09.680Z,100836.88
2022-12-20T05:28:41.695Z,100823.44
2022-12-20T05:31:13.767Z,100847.84
2022-12-20T05:33:46.061Z,100851.38
2022-12-20T05:36:18.582Z,100852.03
2022-12-20T05:38:50.605Z,100819.88
2022-12-20T05:41:22.722Z,100794.47
2022-12-20T05:43:54.706Z,100735.47
2022-12-20T05:46:26.866Z,100743.78
2022-12-20T05:48:58.890Z,100731.97
2022-12-20T05:51:30.999Z,100803.56
2022-12-20T05:54:03.146Z,100791.81
2022-12-20T05:56:35.169Z,100822.31
2022-12-20T05:59:07.268Z,100786.84
2022-12-20T06:01:39.452Z,100793.56
2022-12-20T06:04:11.821Z,100812.41
2022-12-20T06:06:44.137Z,100821.34
2022-12-20T06:09:16.252Z,100780.09
2022-12-20T06:11:48.321Z,100817.84
2022-12-20T06:14:20.317Z,100826.28
2022-12-20T06:16:53.628Z,100827.31
2022-12-20T06:19:25.703Z,100831.38
2022-12-20T06:21:58.690Z,100749.78
2022-12-20T06:24:30.708Z,100817.16
2022-12-20T06:27:03.637Z,100831.28
2022-12-20T06:29:37.703Z,100789.25
2022-12-20T06:32:09.953Z,100791.69
2022-12-20T06:34:43.264Z,100783.97
2022-12-20T06:37:15.431Z,100800.19
2022-12-20T06:39:47.444Z,100770.69
2022-12-20T06:42:19.551Z,100827.88
2022-12-20T06:44:51.666Z,100830.34
2022-12-20T06:47:23.785Z,100752.94
2022-12-20T06:49:55.778Z,100805.91
2022-12-20T06:52:27.899Z,100744.34
2022-12-20T06:55:00.023Z,100724.25
2022-12-20T06:57:32.053Z,100726.50
2022-12-20T07:00:05.475Z,100817.34
2022-12-20T07:02:38.024Z,100787.06
2022-12-20T07:05:10.282Z,100801.34
2022-12-20T07:07:45.107Z,100827.31
2022-12-20T07:10:17.861Z,100828.38
2022-12-20T07:12:49.856Z,100829.94
2022-12-20T07:15:22.535Z,100784.53
2022-12-20T07:17:54.488Z,100763.50
2022-12-20T07:20:26.656Z,100740.63
2022-12-20T07:22:58.936Z,100804.34
2022-12-20T07:25:30.945Z,100826.19
2022-12-20T07:28:03.658Z,100811.13
2022-12-20T07:30:35.658Z,100817.72
2022-12-20T07:33:08.032Z,100842.28
2022-12-20T07:35:40.687Z,100828.84
2022-12-20T07:38:15.898Z,100834.03
2022-12-20T07:40:53.872Z,100821.88
2022-12-20T07:43:25.904Z,100831.28
2022-12-20T07:45:58.095Z,100804.97
2022-12-20T07:48:30.294Z,100764.53
2022-12-20T07:51:07.609Z,100835.28
2022-12-20T07:53:45.204Z,100843.84
2022-12-20T07:56:21.273Z,100826.81
2022-12-20T07:58:58.642Z,100825.41
2022-12-20T08:01:31.851Z,100825.78
2022-12-20T08:04:08.207Z,100824.56
2022-12-20T08:06:42.437Z,100842.16
2022-12-20T08:09:15.949Z,100852.84
2022-12-20T08:11:49.642Z,100825.75
2022-12-20T08:14:22.180Z,100833.38
2022-12-20T08:16:54.268Z,100833.84
2022-12-20T08:19:31.989Z,100806.25
2022-12-20T08:22:05.085Z,100833.38
2022-12-20T08:24:37.117Z,100804.47
2022-12-20T08:27:09.541Z,100826.50
2022-12-20T08:29:41.673Z,100799.22
2022-12-20T08:32:14.615Z,100788.13
2022-12-20T08:34:46.589Z,100794.53
2022-12-20T08:37:19.273Z,100822.75
2022-12-20T08:39:51.314Z,100796.63
2022-12-20T08:42:23.462Z,100724.13
2022-12-20T08:44:55.445Z,100798.91
2022-12-20T08:47:29.900Z,100755.88
2022-12-20T08:50:02.212Z,100742.19
2022-12-20T08:52:34.301Z,100817.00
2022-12-20T08:55:07.198Z,100805.94
2022-12-20T08:57:39.194Z,100788.22
2022-12-20T09:00:11.866Z,100819.13
2022-12-20T09:02:43.996Z,100808.53
2022-12-20T09:05:16.185Z,100789.03
2022-12-20T09:07:48.129Z,100814.28
2022-12-20T09:10:20.180Z,100746.88
2022-12-20T09:12:52.190Z,100772.38
2022-12-20T09:15:24.248Z,100776.34
2022-12-20T09:17:56.285Z,100813.09
2022-12-20T09:20:29.245Z,100791.75
2022-12-20T09:23:01.214Z,100792.81
2022-12-20T09:25:33.596Z,100770.88
2022-12-20T09:28:06.341Z,100780.31
2022-12-20T09:30:38.328Z,100782.38
2022-12-20T09:33:10.851Z,100785.84
2022-12-20T09:35:49.053Z,100815.88
2022-12-20T09:38:21.163Z,100773.91
2022-12-20T09:40:56.637Z,100810.25
2022-12-20T09:43:29.087Z,100783.59
2022-12-20T09:46:03.616Z,100777.47
2022-12-20T09:48:39.394Z,100809.94
2022-12-20T09:51:11.356Z,100798.22
2022-12-20T09:54:08.612Z,100803.81
2022-12-20T09:56:46.454Z,100782.78
2022-12-20T09:59:21.765Z,100780.41
2022-12-20T10:01:53.733Z,100769.44
2022-12-20T10:04:31.866Z,100782.34
2022-12-20T10:07:33.709Z,100769.78
2022-12-20T10:10:05.700Z,100796.94
2022-12-20T10:13:18.132Z,100784.47
2022-12-20T10:15:58.535Z,100798.63
2022-12-20T10:19:10.417Z,100789.09
2022-12-20T10:22:21.098Z,100801.84
2022-12-20T10:25:12.654Z,100784.44
2022-12-20T10:27:46.593Z,100765.88
2022-12-20T10:30:24.684Z,100780.06
2022-12-20T10:32:58.446Z,100781.63
2022-12-20T10:35:41.363Z,100785.19
2022-12-20T10:38:17.871Z,100791.03
2022-12-20T10:41:21.444Z,100782.34
2022-12-20T10:44:24.668Z,100791.94
2022-12-20T10:46:59.825Z,100775.91
2022-12-20T10:49:33.282Z,100789.31
2022-12-20T10:52:14.452Z,100751.59
2022-12-20T10:54:47.832Z,100756.25
2022-12-20T10:57:29.508Z,100754.91
2022-12-20T11:00:06.654Z,100739.13
2022-12-20T11:02:42.307Z,100756.59
2022-12-20T11:05:15.023Z,100752.34
2022-12-20T11:10:49.587Z,100734.34
2022-12-20T11:13:26.962Z,100705.69
2022-12-20T11:16:02.040Z,100738.94
2022-12-20T11:18:57.730Z,100736.97
2022-12-20T11:22:10.809Z,100739.97
2022-12-20T11:24:52.022Z,100725.88
2022-12-20T11:27:26.770Z,100725.69
2022-12-20T11:30:17.468Z,100713.06
2022-12-20T11:32:52.891Z,100709.41
2022-12-20T11:35:41.062Z,100707.66
2022-12-20T11:38:28.183Z,100715.94
2022-12-20T11:41:06.058Z,100706.25
2022-12-20T11:47:17.874Z,100704.84
2022-12-20T11:50:28.577Z,100701.63
2022-12-20T11:53:20.309Z,100691.78
2022-12-20T11:55:55.940Z,100694.44
2022-12-20T11:58:36.530Z,100702.78
2022-12-20T12:01:17.090Z,100674.81
2022-12-20T12:04:14.630Z,100695.47
2022-12-20T12:07:01.301Z,100660.34
2022-12-20T12:09:55.809Z,100675.50
2022-12-20T12:12:48.911Z,100680.47
2022-12-20T12:15:26.989Z,100687.91
2022-12-20T12:18:12.829Z,100662.38
2022-12-20T12:21:10.056Z,100669.28
2022-12-20T12:23:45.347Z,100678.03
2022-12-20T12:26:25.423Z,100686.22
2022-12-20T12:29:01.375Z,100661.19
2022-12-20T12:31:43.835Z,100624.69
2022-12-20T12:34:34.243Z,100694.22
2022-12-20T12:37:30.981Z,100691.34
2022-12-20T12:40:43.911Z,100695.22
2022-12-20T12:43:40.934Z,100682.84
2022-12-20T12:46:36.000Z,100686.03
2022-12-20T12:49:18.177Z,100649.00
2022-12-20T12:51:55.002Z,100682.78
2022-12-20T12:54:36.247Z,100687.22
2022-12-20T12:57:16.714Z,100676.28
2022-12-20T12:59:52.481Z,100680.00
2022-12-20T13:02:28.579Z,100688.97
2022-12-20T13:05:11.331Z,100698.53
2022-12-20T13:07:44.053Z,100666.78
2022-12-20T13:10:15.848Z,100717.59
2022-12-20T13:12:50.672Z,100708.38
2022-12-20T13:15:22.750Z,100711.66
2022-12-20T13:17:58.505Z,100637.59
2022-12-20T13:20:33.777Z,100706.06
2022-12-20T13:23:08.515Z,100709.31
2022-12-20T13:25:54.542Z,100707.63
2022-12-20T13:28:26.501Z,100716.47
2022-12-20T13:30:58.498Z,100709.44
2022-12-20T13:33:47.833Z,100700.38
2022-12-20T13:36:38.309Z,100713.94
2022-12-20T13:39:22.612Z,100721.88
2022-12-20T13:42:28.105Z,100715.31
2022-12-20T13:45:03.184Z,100713.66
2022-12-20T13:47:42.501Z,100698.34
2022-12-20T13:50:26.243Z,100720.44
2022-12-20T13:52:58.936Z,100710.41
2022-12-20T13:55:38.953Z,100698.66
2022-12-20T13:58:14.838Z,100721.72
2022-12-20T14:00:48.022Z,100714.88
2022-12-20T14:03:28.113Z,100712.34
2022-12-20T14:06:03.544Z,100676.97
2022-12-20T14:08:41.294Z,100693.13
2022-12-20T14:11:14.400Z,100692.78
2022-12-20T14:14:14.012Z,100705.50
2022-12-20T14:16:46.017Z,100694.69
2022-12-20T14:19:18.278Z,100677.81
2022-12-20T14:21:51.023Z,100674.31
2022-12-20T14:24:23.183Z,100625.72
2022-12-20T14:26:56.104Z,100684.63
2022-12-20T14:29:32.282Z,100590.41
2022-12-20T14:32:05.756Z,100651.81
2022-12-20T14:34:42.023Z,100613.41
2022-12-20T14:37:38.721Z,100682.25
2022-12-20T14:40:10.677Z,100674.53
2022-12-20T14:42:42.704Z,100676.28
2022-12-20T14:45:14.645Z,100680.47
2022-12-20T14:47:55.781Z,100676.38
2022-12-20T14:50:35.532Z,100659.50
2022-12-20T14:53:30.395Z,100665.47
2022-12-20T14:56:02.764Z,100682.31
2022-12-20T14:58:35.048Z,100663.03
2022-12-20T15:01:16.312Z,100676.22
2022-12-20T15:03:59.970Z,100667.31
2022-12-20T15:06:42.874Z,100678.28
2022-12-20T15:09:17.604Z,100668.91
2022-12-20T15:11:51.909Z,100670.22
2022-12-20T15:14:39.676Z,100680.69
2022-12-20T15:17:14.771Z,100644.44
2022-12-20T15:19:46.840Z,100665.31
2022-12-20T15:22:20.636Z,100663.91
2022-12-20T15:24:52.647Z,100646.09
2022-12-20T15:27:24.881Z,100657.81
2022-12-20T15:29:56.850Z,100629.41
2022-12-20T15:32:30.137Z,100563.78
2022-12-20T15:35:03.833Z,100617.28
2022-12-20T15:37:35.833Z,100642.28
2022-12-20T15:40:11.109Z,100617.97
2022-12-20T15:42:44.172Z,100643.31
2022-12-20T15:45:16.635Z,100645.75
2022-12-20T15:47:49.363Z,100642.28
2022-12-20T15:50:21.284Z,100635.53
2022-12-20T15:52:53.356Z,100583.47
2022-12-20T15:55:25.459Z,100637.97
2022-12-20T15:57:57.376Z,100616.84
2022-12-20T16:00:29.288Z,100632.75
2022-12-20T16:03:02.716Z,100543.91
2022-12-20T16:05:36.100Z,100612.72
2022-12-20T16:08:08.609Z,100637.00
2022-12-20T16:10:40.711Z,100625.13
2022-12-20T16:13:21.092Z,100634.53
2022-12-20T16:15:54.180Z,100640.41
2022-12-20T16:18:31.458Z,100599.22
2022-12-20T16:21:15.401Z,100630.47
2022-12-20T16:23:48.029Z,100562.88
2022-12-20T16:26:23.213Z,100638.19
2022-12-20T16:28:56.805Z,100562.69
2022-12-20T16:31:36.342Z,100635.41
2022-12-20T16:34:14.350Z,100604.16
2022-12-20T16:36:47.077Z,100537.44
2022-12-20T16:39:19.894Z,100550.75
2022-12-20T16:41:51.834Z,100613.63
2022-12-20T16:44:31.313Z,100613.06
2022-12-20T16:47:03.432Z,100610.47
2022-12-20T16:49:35.574Z,100561.84
2022-12-20T16:52:18.779Z,100641.47
2022-12-20T16:54:52.035Z,100616.13
2022-12-20T16:57:24.403Z,100569.06
2022-12-20T17:00:08.876Z,100627.84
2022-12-20T17:02:41.009Z,100543.00
2022-12-20T17:05:33.757Z,100623.50
2022-12-20T17:10:52.586Z,100595.56
2022-12-20T17:13:24.582Z,100585.31
2022-12-20T17:15:56.944Z,100601.25
2022-12-20T17:18:29.352Z,100598.03
2022-12-20T17:21:02.348Z,100598.91
2022-12-20T17:23:38.293Z,100607.38
2022-12-20T17:26:15.142Z,100597.34
2022-12-20T17:28:48.145Z,100616.63
2022-12-20T17:31:27.180Z,100616.69
2022-12-20T17:33:59.411Z,100609.94
2022-12-20T17:36:37.579Z,100612.44
2022-12-20T17:39:10.030Z,100600.50
2022-12-20T17:41:43.039Z,100601.88
2022-12-20T17:44:23.926Z,100593.25
2022-12-20T17:46:57.040Z,100591.63
2022-12-20T17:49:29.093Z,100589.91
2022-12-20T17:52:00.985Z,100538.59
2022-12-20T17:54:39.575Z,100549.47
2022-12-20T17:57:16.473Z,100581.31
2022-12-20T17:59:48.345Z,100577.28
2022-12-20T18:02:23.269Z,100549.75
2022-12-20T18:04:55.418Z,100584.13
2022-12-20T18:07:27.357Z,100559.53
2022-12-20T18:09:59.582Z,100567.81
2022-12-20T18:12:37.051Z,100565.25
2022-12-20T18:15:10.634Z,100569.50
2022-12-20T18:17:45.289Z,100559.38
2022-12-20T18:20:17.768Z,100518.22
2022-12-20T18:22:49.868Z,100550.06
2022-12-20T18:25:21.870Z,100563.41
2022-12-20T18:27:53.848Z,100533.00
2022-12-20T18:30:25.749Z,100564.34
2022-12-20T18:32:57.728Z,100569.38
2022-12-20T18:35:32.716Z,100560.13
2022-12-20T18:38:05.415Z,100539.06
2022-12-20T18:40:37.269Z,100553.91
2022-12-20T18:43:09.221Z,100544.78
2022-12-20T18:45:43.988Z,100562.53
2022-12-20T18:48:16.010Z,100510.66
2022-12-20T18:50:47.961Z,100524.03
2022-12-20T18:53:19.918Z,100554.84
2022-12-20T18:55:51.905Z,100518.94
2022-12-20T18:58:26.679Z,100488.59
2022-12-20T19:01:27.176Z,100480.69
2022-12-20T19:07:08.551Z,100546.09
2022-12-20T19:09:40.519Z,100510.78
2022-12-20T19:12:12.455Z,100538.28
2022-12-20T19:14:44.422Z,100471.41
2022-12-20T19:17:16.635Z,100530.13
2022-12-20T19:19:48.673Z,100555.31
2022-12-20T19:22:20.698Z,100557.03
2022-12-20T19:24:55.744Z,100564.72
2022-12-20T19:27:31.111Z,100520.25
2022-12-20T19:30:04.204Z,100525.91
2022-12-20T19:32:36.155Z,100554.78
2022-12-20T19:35:45.246Z,100494.50
2022-12-20T19:38:01.357Z,100491.88
2022-12-20T19:40:33.341Z,100495.19
2022-12-20T19:43:08.466Z,100530.13
2022-12-20T19:46:01.393Z,100549.53
2022-12-20T19:48:37.560Z,100524.81
2022-12-20T19:51:22.148Z,100414.41
2022-12-20T19:54:02.629Z,100554.19
2022-12-20T19:56:36.433Z,100456.44
2022-12-20T19:59:12.162Z,100530.13
2022-12-20T20:01:44.967Z,100501.06
2022-12-20T20:04:17.373Z,100547.50
2022-12-20T20:06:49.343Z,100489.63
2022-12-20T20:09:21.394Z,100537.25
2022-12-20T20:11:53.437Z,100478.78
2022-12-20T20:14:27.676Z,100514.56
2022-12-20T20:16:59.532Z,100532.69
2022-12-20T20:19:32.526Z,100535.56
2022-12-20T20:22:06.483Z,100558.44
2022-12-20T20:24:38.569Z,100543.34
2022-12-20T20:27:10.895Z,100533.41
2022-12-20T20:29:42.887Z,100524.50
2022-12-20T20:32:14.845Z,100507.63
2022-12-20T20:34:46.769Z,100515.03
2022-12-20T20:37:18.868Z,100478.81
2022-12-20T20:39:50.816Z,100490.25
2022-12-20T20:42:23.534Z,100476.91
2022-12-20T20:44:55.719Z,100466.81
2022-12-20T20:47:27.678Z,100494.53
2022-12-20T20:49:59.847Z,100495.56
2022-12-20T20:52:32.025Z,100468.91
2022-12-20T20:55:05.187Z,100482.97
2022-12-20T20:57:37.360Z,100480.34
2022-12-20T21:00:10.105Z,100458.66
2022-12-20T21:02:42.711Z,100451.97
2022-12-20T21:08:07.217Z,100407.66
2022-12-20T21:10:39.399Z,100464.63
2022-12-20T21:13:12.440Z,100496.56
2022-12-20T21:15:46.058Z,100491.28
2022-12-20T21:18:18.539Z,100512.56
2022-12-20T21:20:50.746Z,100496.41
2022-12-20T21:23:22.850Z,100478.72
2022-12-20T21:25:58.864Z,100494.41
2022-12-20T21:28:31.905Z,100473.56
2022-12-20T21:31:06.853Z,100479.22
2022-12-20T21:33:39.367Z,100474.94
2022-12-20T21:36:14.335Z,100473.09
2022-12-20T21:38:51.124Z,100467.34
2022-12-20T21:41:25.437Z,100474.09
2022-12-20T21:44:01.011Z,100472.34
2022-12-20T21:46:33.373Z,100429.66
2022-12-20T21:49:05.407Z,100432.22
2022-12-20T21:51:37.385Z,100467.28
2022-12-20T21:54:09.855Z,100443.06
2022-12-20T21:56:41.774Z,100469.59
2022-12-20T21:59:13.955Z,100447.75
2022-12-20T22:01:47.398Z,100421.16
2022-12-20T22:04:19.704Z,100380.97
2022-12-20T22:06:51.753Z,100480.94
2022-12-20T22:09:23.802Z,100469.13
2022-12-20T22:11:55.810Z,100414.56
2022-12-20T22:14:27.755Z,100447.03
2022-12-20T22:16:59.695Z,100445.91
2022-12-20T22:19:31.832Z,100466.09
2022-12-20T22:22:03.804Z,100448.28
2022-12-20T22:24:37.549Z,100454.84
2022-12-20T22:27:11.705Z,100448.28
2022-12-20T22:29:43.708Z,100424.38
2022-12-20T22:32:15.728Z,100435.19
2022-12-20T22:34:47.850Z,100440.91
2022-12-20T22:37:19.831Z,100414.19
2022-12-20T22:39:51.824Z,100435.09
2022-12-20T22:42:23.829Z,100429.03
2022-12-20T22:44:55.764Z,100433.06
2022-12-20T22:50:13.767Z,100422.97
2022-12-20T22:52:45.738Z,100418.53
2022-12-20T22:55:17.769Z,100406.00
2022-12-20T22:57:49.713Z,100423.75
2022-12-20T23:00:22.059Z,100423.56
2022-12-20T23:02:54.167Z,100408.19
2022-12-20T23:05:26.282Z,100422.47
2022-12-20T23:07:58.402Z,100403.81
2022-12-20T23:10:48.898Z,100369.72
2022-12-20T23:13:39.597Z,100385.59
2022-12-20T23:16:12.932Z,100379.75
2022-12-20T23:18:45.056Z,100416.41
2022-12-20T23:21:35.467Z,100351.03
2022-12-20T23:24:08.201Z,100406.50
2022-12-20T23:26:40.928Z,100383.69
2022-12-20T23:29:14.832Z,100395.56
2022-12-20T23:31:46.996Z,100375.94
2022-12-20T23:34:18.923Z,100314.59
2022-12-20T23:36:50.866Z,100337.94
2022-12-20T23:39:22.781Z,100377.22
2022-12-20T23:41:54.702Z,100345.75
2022-12-20T23:44:26.632Z,100366.53
2022-12-20T23:46:58.568Z,100374.00
2022-12-20T23:49:30.488Z,100320.38
2022-12-20T23:52:02.471Z,100364.69
2022-12-20T23:54:34.347Z,100300.16
2022-12-20T23:57:06.298Z,100344.28
2022-12-20T23:59:38.980Z,100344.31
